Hovedside
METAR-TAF:

METAR-TAF

Lufthavner :

Heidrunfeltet

Heidrun, Norge

breddegrad: 65-19-30N, lengdegrad: 007-19-36E, høyde over havet: 0 m

Gjeldene værobservasjon

Denne rapporten ble laget for 22 minutter siden, klokken 18:50 UTC
Vind 11 kt fra Øst
Temperatur 6°C
Luftfuktighet 81%
Trykk 1030 hPa
Sikt 10 km eller mer
ingen skyer under 1500 m og ingen bygeskyer

METAR: ENHE 211850Z 10011KT CAVOK 06/03 Q1030 W///S4

Tid: 20:12 (19:12 UTC)

Varsel

Denne rapporten ble laget for 2 timer og 12 minutter siden, klokken 17:00 UTC
Varsel gyldig fra 21. klokken 18 UTC til 22. klokken 03 UTC
Vind 15 kt fra Øst
Sikt 10 km eller mer
ingen skyer under 1500 m og ingen bygeskyer

TAF: ENHE 211700Z 2118/2203 09015KT CAVOK

Værobservasjoner og værvarsel for over 4000 flyplasser (METAR- og TAF-rapporter).

Tilgjengelige stasjoner er representert av de røde og gule prikkene på kartet.

Hold musepekeren over prikken for å se navnet på stasjonen.

Klikk så for å se værobservasjoner og -varsler.

For å forandre kartet kan du klikke på den grønne knappen med svart kryss for å zoome inn, på den grønne knappen med strek for å zoome ut, eller på de grønne pilene for å se tilstøtende kart.


METAR-TAF: